Time;durP1;ratioP1;P1;durP2;ratioP2;P2;SDS_P1;SDS_P2;PMS_P1;PMS_P2;Temp;Humidity;BMP_temperature;BMP_pressure;BME280_temperature;BME280_humidity;BME280_pressure;Samples;Min_cycle;Max_cycle;Signal;HPM_P1;HPM_P2
2022/11/16 00:01:19;;;;;;;;;;;;;;;28.71;26.47;100468.81;4979041;28;1196;-22
2022/11/16 00:03:44;;;;;;;;;;;;;;;28.75;26.47;100463.84;4967293;28;1906;-22
2022/11/16 00:06:10;;;;;;;;;;;;;;;28.85;26.06;100471.59;4979210;28;1162;-22
2022/11/16 00:08:36;;;;;;;;;;;;;;;28.96;26.20;100473.72;4978833;28;1189;-22
2022/11/16 00:11:03;;;;;;;;;;;;;;;28.94;25.95;100472.25;4979321;28;1177;-22
2022/11/16 00:13:28;;;;;;;;;;;;;;;29.15;25.64;100465.88;4978814;28;1218;-23
2022/11/16 00:15:56;;;;;;;;;;;;;;;29.29;25.75;100469.47;4960794;28;1171;-23
2022/11/16 00:18:22;;;;;;;;;;;;;;;29.23;25.61;100461.34;4979380;28;1225;-22
2022/11/16 00:20:47;;;;;;;;;;;;;;;29.26;25.75;100464.44;4979195;28;1455;-21
2022/11/16 00:23:12;;;;;;;;;;;;;;;29.39;25.48;100462.81;4977808;28;1961;-21
2022/11/16 00:25:38;;;;;;;;;;;;;;;29.32;25.59;100452.81;4979036;28;1208;-23
2022/11/16 00:28:03;;;;;;;;;;;;;;;29.46;25.29;100453.66;4978530;28;1161;-22
2022/11/16 00:30:28;;;;;;;;;;;;;;;29.66;24.92;100446.63;4978249;28;1126;-23
2022/11/16 00:32:53;;;;;;;;;;;;;;;29.78;24.88;100447.66;4978655;28;1154;-23
2022/11/16 00:35:19;;;;;;;;;;;;;;;29.05;25.77;100449.19;4978945;28;1240;-23
2022/11/16 00:37:44;;;;;;;;;;;;;;;27.89;27.53;100442.28;4978295;28;1154;-22
2022/11/16 00:40:10;;;;;;;;;;;;;;;28.16;27.21;100438.94;4978340;28;1121;-22
2022/11/16 00:42:35;;;;;;;;;;;;;;;29.21;25.80;100437.97;4978749;28;1907;-22
2022/11/16 00:45:00;;;;;;;;;;;;;;;29.68;25.31;100437.22;4978449;28;1157;-22
2022/11/16 00:47:26;;;;;;;;;;;;;;;29.87;24.90;100444.72;4978251;28;1169;-21
2022/11/16 00:49:51;;;;;;;;;;;;;;;29.99;24.56;100432.22;4978304;28;1221;-21
2022/11/16 00:52:16;;;;;;;;;;;;;;;29.98;24.62;100433.25;4977904;28;1225;-22
2022/11/16 00:54:42;;;;;;;;;;;;;;;27.85;27.26;100428.31;4978924;28;1225;-22
2022/11/16 00:57:07;;;;;;;;;;;;;;;27.90;27.65;100429.56;4978431;28;1221;-22
2022/11/16 00:59:32;;;;;;;;;;;;;;;29.06;26.06;100426.50;4978285;28;1192;-22
2022/11/16 01:01:57;;;;;;;;;;;;;;;27.79;27.50;100421.00;4978505;28;1117;-23
2022/11/16 01:04:23;;;;;;;;;;;;;;;27.30;28.26;100419.88;4977683;28;1961;-21
2022/11/16 01:06:48;;;;;;;;;;;;;;;28.45;27.01;100415.41;4978129;28;1201;-21
2022/11/16 01:09:13;;;;;;;;;;;;;;;28.83;26.25;100420.34;4978398;28;1150;-21
2022/11/16 01:14:22;;;;;;;;;;;;;;;29.11;25.74;100402.34;4977678;28;1094;-21
2022/11/16 01:16:48;;;;;;;;;;;;;;;29.34;25.55;100410.06;4977967;28;1162;-21
2022/11/16 01:19:13;;;;;;;;;;;;;;;28.95;26.13;100404.34;4977500;28;1219;-22
2022/11/16 01:21:39;;;;;;;;;;;;;;;29.12;25.77;100392.34;4978042;28;1170;-22
2022/11/16 01:24:04;;;;;;;;;;;;;;;29.09;25.69;100399.00;4977693;28;1883;-21
2022/11/16 01:26:29;;;;;;;;;;;;;;;29.06;25.77;100388.59;4978299;28;1118;-22
2022/11/16 01:28:56;;;;;;;;;;;;;;;29.17;25.79;100390.69;4977406;28;998;-22
2022/11/16 01:31:21;;;;;;;;;;;;;;;29.37;25.38;100389.03;4978190;28;1177;-22
2022/11/16 01:33:47;;;;;;;;;;;;;;;29.34;25.50;100382.16;4977274;28;1208;-22
2022/11/16 01:36:15;;;;;;;;;;;;;;;29.51;25.24;100385.28;4977293;28;1200;-22
2022/11/16 01:38:41;;;;;;;;;;;;;;;29.52;25.29;100394.25;4977245;28;1094;-22
2022/11/16 01:41:07;;;;;;;;;;;;;;;29.51;25.23;100387.16;4977420;28;1173;-22
2022/11/16 01:44:10;;;;;;;;;;;;;;;29.96;24.67;100385.72;4977081;28;1910;-22
2022/11/16 01:46:36;;;;;;;;;;;;;;;28.93;25.50;100375.78;4910036;29;1552;-22
2022/11/16 01:49:05;;;;;;;;;;;;;;;27.66;27.72;100375.72;4898686;29;1254;-22
2022/11/16 01:51:30;;;;;;;;;;;;;;;28.63;26.48;100368.84;4936605;28;1106;-22
2022/11/16 01:53:55;;;;;;;;;;;;;;;29.15;25.80;100348.59;4976674;28;1070;-22
2022/11/16 01:56:21;;;;;;;;;;;;;;;29.32;25.36;100360.69;4960643;28;1185;-22
2022/11/16 01:58:46;;;;;;;;;;;;;;;29.15;25.90;100351.28;4977298;28;1184;-22
2022/11/16 02:01:11;;;;;;;;;;;;;;;29.06;25.88;100350.69;4977395;28;1138;-22
2022/11/16 02:03:37;;;;;;;;;;;;;;;29.07;25.82;100353.19;4977427;28;1906;-22
2022/11/16 02:06:34;;;;;;;;;;;;;;;29.09;25.87;100353.78;4976907;28;944;-22
2022/11/16 02:12:34;;;;;;;;;;;;;;;29.26;25.55;100360.69;4950286;28;1158;-22
2022/11/16 02:15:13;;;;;;;;;;;;;;;29.41;25.50;100357.78;4977362;28;1192;-22
2022/11/16 02:17:44;;;;;;;;;;;;;;;29.41;25.32;100353.19;4976760;28;948;-22
2022/11/16 02:20:25;;;;;;;;;;;;;;;29.42;25.27;100348.59;4977240;28;1221;-22
2022/11/16 02:23:05;;;;;;;;;;;;;;;29.39;25.35;100346.31;4977157;28;1966;-22
2022/11/16 02:25:42;;;;;;;;;;;;;;;29.52;25.42;100351.72;4964485;28;1043;-22
2022/11/16 02:28:26;;;;;;;;;;;;;;;29.54;25.22;100341.53;4976692;28;1173;-22
2022/11/16 02:30:52;;;;;;;;;;;;;;;29.53;25.14;100341.75;4976942;28;1208;-22
2022/11/16 02:33:18;;;;;;;;;;;;;;;29.64;24.96;100333.00;4959822;28;1241;-22
2022/11/16 02:35:47;;;;;;;;;;;;;;;29.87;24.61;100331.69;4976967;28;1189;-23
2022/11/16 02:38:13;;;;;;;;;;;;;;;29.75;24.76;100327.94;4959774;28;1241;-22
2022/11/16 02:40:39;;;;;;;;;;;;;;;28.13;26.85;100323.88;4959327;28;1182;-22
2022/11/16 02:43:08;;;;;;;;;;;;;;;27.96;27.41;100312.56;4959992;28;1891;-22
2022/11/16 02:45:35;;;;;;;;;;;;;;;29.13;25.67;100318.19;4959986;28;1229;-23
2022/11/16 02:48:02;;;;;;;;;;;;;;;29.64;25.04;100316.72;4980533;28;1439;-22
2022/11/16 02:50:27;;;;;;;;;;;;;;;29.78;24.76;100314.00;4963256;28;1150;-22
2022/11/16 02:52:52;;;;;;;;;;;;;;;29.53;24.94;100315.44;4963226;28;1197;-22
2022/11/16 02:55:17;;;;;;;;;;;;;;;29.26;25.43;100306.53;4980637;28;1122;-22
2022/11/16 02:57:45;;;;;;;;;;;;;;;29.26;25.40;100306.53;4980451;28;1228;-23
2022/11/16 03:00:27;;;;;;;;;;;;;;;29.24;25.54;100308.59;4963395;28;1150;-22
2022/11/16 03:02:55;;;;;;;;;;;;;;;29.27;25.60;100305.47;4962938;28;1948;-22
2022/11/16 03:05:30;;;;;;;;;;;;;;;29.30;25.63;100305.88;4979676;28;903;-22
2022/11/16 03:08:16;;;;;;;;;;;;;;;29.38;25.22;100302.13;4964337;28;1138;-22
2022/11/16 03:13:27;;;;;;;;;;;;;;;29.35;25.40;100297.13;4979566;28;1241;-22
2022/11/16 03:15:53;;;;;;;;;;;;;;;29.40;25.40;100291.06;4980471;28;1209;-22
2022/11/16 03:18:18;;;;;;;;;;;;;;;29.30;25.26;100289.63;4962361;28;1186;-22
2022/11/16 03:20:43;;;;;;;;;;;;;;;29.34;25.32;100287.34;4979944;28;1129;-22
2022/11/16 03:23:09;;;;;;;;;;;;;;;29.32;25.30;100290.25;4962174;28;1894;-22
2022/11/16 03:25:39;;;;;;;;;;;;;;;29.50;25.22;100280.66;4980145;28;1153;-22
2022/11/16 03:28:24;;;;;;;;;;;;;;;29.44;25.21;100290.47;4962712;28;1119;-22
2022/11/16 03:30:51;;;;;;;;;;;;;;;29.63;24.82;100293.38;4962937;28;1066;-23
2022/11/16 03:33:19;;;;;;;;;;;;;;;29.78;24.67;100286.91;4962521;28;1134;-22
2022/11/16 03:36:03;;;;;;;;;;;;;;;29.65;24.71;100295.88;4979346;28;1189;-23
2022/11/16 03:38:28;;;;;;;;;;;;;;;29.65;24.98;100295.88;4979962;28;1197;-23
2022/11/16 03:40:58;;;;;;;;;;;;;;;29.51;25.12;100286.91;4979544;28;1166;-23
2022/11/16 03:43:23;;;;;;;;;;;;;;;29.63;24.90;100271.69;4962039;28;1961;-23
2022/11/16 03:45:48;;;;;;;;;;;;;;;29.50;25.13;100277.09;4963671;28;1459;-23
2022/11/16 03:48:14;;;;;;;;;;;;;;;29.61;24.98;100268.38;4962499;28;1309;-23
2022/11/16 03:50:39;;;;;;;;;;;;;;;29.68;24.67;100277.31;4979609;28;1145;-23
2022/11/16 03:53:04;;;;;;;;;;;;;;;29.65;24.82;100266.06;4979026;28;1170;-23
2022/11/16 03:55:30;;;;;;;;;;;;;;;29.73;24.56;100265.00;4979911;28;1134;-22
2022/11/16 03:57:55;;;;;;;;;;;;;;;29.76;24.65;100262.69;4979257;28;1181;-23
2022/11/16 04:00:20;;;;;;;;;;;;;;;29.60;24.83;100253.13;4979581;28;1158;-22
2022/11/16 04:02:45;;;;;;;;;;;;;;;29.71;24.50;100251.66;4979156;28;1902;-21
2022/11/16 04:24:24;;;;;;;;;;;;;;;26.08;22.94;100240.41;4978082;28;1991;-22
2022/11/16 04:29:36;;;;;;;;;;;;;;;27.35;23.29;100241.88;4963753;28;1181;-22
2022/11/16 04:37:47;;;;;;;;;;;;;;;28.35;21.83;100245.34;4963663;28;1166;-22
2022/11/16 04:40:13;;;;;;;;;;;;;;;28.40;21.99;100242.03;4978444;28;1150;-21
2022/11/16 04:42:38;;;;;;;;;;;;;;;28.35;22.14;100239.94;4977862;28;1906;-21
2022/11/16 04:47:48;;;;;;;;;;;;;;;23.88;23.99;100239.75;4977776;28;944;-20
2022/11/16 04:50:13;;;;;;;;;;;;;;;23.74;24.37;100217.97;4977983;28;1125;-21
2022/11/16 04:52:38;;;;;;;;;;;;;;;24.30;23.48;100213.56;4947679;28;1805;-21
2022/11/16 04:55:04;;;;;;;;;;;;;;;24.19;23.87;100212.94;4977864;28;916;-21
2022/11/16 04:57:29;;;;;;;;;;;;;;;24.49;24.03;100206.06;4990495;28;1122;-22
2022/11/16 04:59:55;;;;;;;;;;;;;;;24.80;23.32;100213.22;4978761;28;1200;-21
2022/11/16 05:02:20;;;;;;;;;;;;;;;26.15;23.41;100217.06;4976828;28;1213;-20
2022/11/16 05:04:45;;;;;;;;;;;;;;;27.03;22.38;100220.69;4977294;28;1969;-21
2022/11/16 05:07:11;;;;;;;;;;;;;;;27.08;22.96;100215.53;4977508;28;969;-21
2022/11/16 05:09:41;;;;;;;;;;;;;;;27.60;23.67;100217.94;4977568;28;1142;-21
2022/11/16 05:12:07;;;;;;;;;;;;;;;28.48;23.14;100223.75;4978013;28;1046;-22
2022/11/16 05:14:33;;;;;;;;;;;;;;;29.00;23.19;100219.63;4977778;28;1086;-21
2022/11/16 05:16:58;;;;;;;;;;;;;;;29.25;22.95;100218.16;4977622;28;1212;-22
2022/11/16 05:22:07;;;;;;;;;;;;;;;29.56;22.77;100217.47;4977243;28;2343;-20
2022/11/16 05:24:32;;;;;;;;;;;;;;;29.74;22.84;100221.41;4977342;28;1906;-22
2022/11/16 05:26:58;;;;;;;;;;;;;;;29.86;22.76;100221.59;4976555;28;1177;-22
2022/11/16 05:29:23;;;;;;;;;;;;;;;30.01;22.63;100217.78;4976845;28;1261;-21
2022/11/16 05:31:48;;;;;;;;;;;;;;;29.92;22.85;100212.59;4977124;28;1196;-21
2022/11/16 05:34:14;;;;;;;;;;;;;;;29.33;23.72;100212.50;4976992;28;1102;-21
2022/11/16 05:36:39;;;;;;;;;;;;;;;29.26;23.89;100209.00;4977442;28;1123;-22
2022/11/16 05:39:04;;;;;;;;;;;;;;;29.34;23.81;100208.78;4977568;28;1153;-21
2022/11/16 05:41:29;;;;;;;;;;;;;;;29.49;23.89;100211.25;4977222;28;1078;-21
2022/11/16 05:43:55;;;;;;;;;;;;;;;29.65;24.07;100219.97;4977382;28;1957;-21
2022/11/16 05:46:20;;;;;;;;;;;;;;;29.84;23.71;100212.84;4977559;28;1145;-21
2022/11/16 05:48:46;;;;;;;;;;;;;;;29.87;23.83;100209.69;4977037;28;1165;-21
2022/11/16 05:51:11;;;;;;;;;;;;;;;29.94;23.82;100215.94;4976918;28;2260;-22
2022/11/16 05:53:36;;;;;;;;;;;;;;;30.02;23.86;100209.41;4976351;28;1185;-22
2022/11/16 05:56:01;;;;;;;;;;;;;;;29.33;24.31;100199.81;4976774;28;1263;-22
2022/11/16 05:58:27;;;;;;;;;;;;;;;27.98;26.75;100199.63;4977418;28;1284;-21
2022/11/16 06:00:52;;;;;;;;;;;;;;;29.27;25.02;100199.81;4959936;28;1142;-21
2022/11/16 06:03:17;;;;;;;;;;;;;;;29.38;25.08;100207.28;4976527;28;1977;-21
2022/11/16 06:05:42;;;;;;;;;;;;;;;29.28;25.03;100201.50;4977276;28;1138;-21
2022/11/16 06:08:08;;;;;;;;;;;;;;;29.11;25.45;100204.66;4977129;28;1149;-22
2022/11/16 06:10:33;;;;;;;;;;;;;;;29.17;25.58;100201.09;4977450;28;1078;-21
2022/11/16 06:12:58;;;;;;;;;;;;;;;29.32;25.41;100197.31;4977172;28;1090;-21
2022/11/16 06:15:24;;;;;;;;;;;;;;;29.53;24.89;100200.81;4977089;28;1130;-21
2022/11/16 06:17:49;;;;;;;;;;;;;;;29.68;25.01;100190.56;4976163;28;1169;-23
2022/11/16 06:20:14;;;;;;;;;;;;;;;29.87;24.96;100192.56;4976765;28;1237;-22
2022/11/16 06:22:40;;;;;;;;;;;;;;;30.03;24.61;100188.56;4979938;28;2388;-22
2022/11/16 06:25:09;;;;;;;;;;;;;;;30.28;24.24;100187.81;4980555;28;1213;-22
2022/11/16 06:27:38;;;;;;;;;;;;;;;29.42;25.11;100175.19;4980696;28;1222;-22
2022/11/16 06:30:04;;;;;;;;;;;;;;;29.66;25.26;100178.28;4980056;28;1262;-22
2022/11/16 06:32:29;;;;;;;;;;;;;;;29.54;25.41;100167.25;4980418;28;1325;-20
2022/11/16 06:34:55;;;;;;;;;;;;;;;29.49;25.43;100172.47;4981044;28;1137;-21
2022/11/16 06:37:20;;;;;;;;;;;;;;;29.45;25.59;100150.38;4980453;28;1173;-22
2022/11/16 06:39:45;;;;;;;;;;;;;;;29.51;25.68;100157.66;4980609;28;1184;-20
2022/11/16 06:42:11;;;;;;;;;;;;;;;29.68;25.58;100159.91;4980503;28;1129;-22
2022/11/16 06:44:36;;;;;;;;;;;;;;;29.44;25.72;100152.28;4980341;28;1902;-21
2022/11/16 06:47:01;;;;;;;;;;;;;;;29.36;25.95;100144.38;4980328;28;1150;-22
2022/11/16 06:49:27;;;;;;;;;;;;;;;30.30;25.11;100147.72;4980124;28;1198;-22
2022/11/16 06:51:52;;;;;;;;;;;;;;;30.75;24.80;100137.75;4980417;28;2326;-21
2022/11/16 06:54:17;;;;;;;;;;;;;;;29.89;24.89;100149.81;4980248;28;1098;-22
2022/11/16 06:56:42;;;;;;;;;;;;;;;29.39;25.71;100143.97;4980395;28;1149;-22
2022/11/16 06:59:08;;;;;;;;;;;;;;;28.91;27.04;100136.94;4980218;28;1154;-21
2022/11/16 07:01:33;;;;;;;;;;;;;;;29.25;26.77;100137.72;4979928;28;1141;-20
2022/11/16 07:03:58;;;;;;;;;;;;;;;29.90;25.89;100130.63;4980185;28;1954;-22
2022/11/16 07:06:23;;;;;;;;;;;;;;;30.37;25.31;100132.22;4979892;28;1137;-23
2022/11/16 07:08:49;;;;;;;;;;;;;;;30.21;25.47;100132.75;4979941;28;1204;-21
2022/11/16 07:11:14;;;;;;;;;;;;;;;30.08;25.61;100130.94;4979522;28;1118;-21
2022/11/16 07:13:39;;;;;;;;;;;;;;;30.25;25.42;100118.53;4979922;28;1109;-21
2022/11/16 07:16:08;;;;;;;;;;;;;;;30.59;24.90;100121.00;4980239;28;1165;-22
2022/11/16 07:18:34;;;;;;;;;;;;;;;29.53;25.83;100131.19;4979877;28;1266;-22
2022/11/16 07:21:04;;;;;;;;;;;;;;;30.04;26.17;100122.41;4979677;28;2352;-22
2022/11/16 07:23:29;;;;;;;;;;;;;;;30.55;25.23;100123.31;4979671;28;1910;-23
2022/11/16 07:25:58;;;;;;;;;;;;;;;30.98;24.64;100120.03;4979839;28;1196;-23
2022/11/16 07:28:23;;;;;;;;;;;;;;;31.63;23.88;100131.44;4979399;28;1141;-23
2022/11/16 07:30:48;;;;;;;;;;;;;;;31.44;24.18;100130.63;4979005;28;1098;-24
2022/11/16 07:33:14;;;;;;;;;;;;;;;31.39;23.96;100125.88;4979102;28;1196;-23
2022/11/16 07:35:39;;;;;;;;;;;;;;;30.05;25.19;100119.47;4979802;28;1114;-22
2022/11/16 07:38:04;;;;;;;;;;;;;;;30.62;25.22;100120.53;4979306;28;1434;-22
2022/11/16 07:40:29;;;;;;;;;;;;;;;31.00;24.47;100107.88;4979566;28;1194;-23
2022/11/16 07:42:56;;;;;;;;;;;;;;;30.59;24.80;100115.56;4979445;28;1902;-23
2022/11/16 07:45:21;;;;;;;;;;;;;;;30.24;25.47;100105.19;4979839;28;1142;-23
2022/11/16 07:47:51;;;;;;;;;;;;;;;29.97;25.63;100106.19;4979533;28;1169;-22
2022/11/16 07:50:16;;;;;;;;;;;;;;;29.75;26.23;100105.66;4979193;28;1177;-22
2022/11/16 07:52:45;;;;;;;;;;;;;;;29.53;26.19;100105.97;4966911;28;1841;-21
2022/11/16 07:55:10;;;;;;;;;;;;;;;29.11;27.12;100104.47;4979089;28;1485;-23
2022/11/16 07:57:35;;;;;;;;;;;;;;;30.21;25.70;100092.06;4979403;28;1185;-22
2022/11/16 08:00:01;;;;;;;;;;;;;;;30.38;25.47;100098.59;4979609;28;1122;-22
2022/11/16 08:02:26;;;;;;;;;;;;;;;30.35;25.57;100088.19;4979134;28;1241;-23
2022/11/16 08:04:51;;;;;;;;;;;;;;;30.33;25.70;100103.84;4978863;28;1898;-22
2022/11/16 08:07:17;;;;;;;;;;;;;;;30.02;25.91;100095.50;4978864;28;1181;-21
2022/11/16 08:09:43;;;;;;;;;;;;;;;29.65;26.12;100090.72;4978949;28;1122;-21
2022/11/16 08:12:08;;;;;;;;;;;;;;;29.09;27.30;100098.41;4978908;28;1121;-21
2022/11/16 08:14:33;;;;;;;;;;;;;;;29.92;26.45;100089.72;4979324;28;1141;-21
2022/11/16 08:16:59;;;;;;;;;;;;;;;30.14;26.19;100084.78;4978977;28;1193;-22
2022/11/16 08:19:24;;;;;;;;;;;;;;;30.32;25.88;100091.34;4978440;28;1089;-21
2022/11/16 08:21:49;;;;;;;;;;;;;;;30.25;26.07;100096.00;4969939;28;1900;-21
2022/11/16 08:24:15;;;;;;;;;;;;;;;30.05;26.06;100092.34;4976951;28;1902;-21
2022/11/16 08:26:40;;;;;;;;;;;;;;;29.89;26.01;100080.16;4972869;28;1339;-20
2022/11/16 08:29:05;;;;;;;;;;;;;;;29.44;26.76;100075.56;4975496;28;1390;-20
2022/11/16 08:31:31;;;;;;;;;;;;;;;30.00;26.17;100070.47;4974463;28;1198;-21
2022/11/16 08:33:58;;;;;;;;;;;;;;;30.26;25.91;100074.06;4973494;28;1213;-20
2022/11/16 08:36:23;;;;;;;;;;;;;;;30.40;25.52;100063.94;4977641;28;1149;-20
2022/11/16 08:38:49;;;;;;;;;;;;;;;30.55;25.25;100062.75;4977574;28;1102;-21
2022/11/16 08:41:14;;;;;;;;;;;;;;;29.89;25.77;100068.47;4959302;28;1177;-21
2022/11/16 08:43:40;;;;;;;;;;;;;;;29.77;26.33;100055.63;4975932;28;1902;-21
2022/11/16 08:46:06;;;;;;;;;;;;;;;29.97;26.37;100061.94;4976615;28;1145;-21
2022/11/16 08:48:31;;;;;;;;;;;;;;;30.16;25.87;100069.09;4977219;28;1110;-21
2022/11/16 08:51:03;;;;;;;;;;;;;;;30.32;25.93;100066.94;4977633;28;1830;-21
2022/11/16 08:53:28;;;;;;;;;;;;;;;30.21;25.39;100063.06;4962988;28;1129;-22
2022/11/16 08:55:54;;;;;;;;;;;;;;;30.32;25.38;100066.94;4969721;28;969;-22
2022/11/16 08:58:19;;;;;;;;;;;;;;;29.92;25.88;100058.03;4964928;28;1170;-21
2022/11/16 09:00:45;;;;;;;;;;;;;;;30.34;25.32;100061.28;4967705;28;1209;-21
2022/11/16 09:03:10;;;;;;;;;;;;;;;30.10;25.39;100058.31;4969676;28;1991;-21
2022/11/16 09:05:37;;;;;;;;;;;;;;;29.57;24.92;100051.13;4968935;28;1131;-22
2022/11/16 09:08:04;;;;;;;;;;;;;;;28.82;27.18;100055.13;4973127;28;845;-21
2022/11/16 09:10:29;;;;;;;;;;;;;;;28.88;27.67;100056.97;4975185;28;954;-23
2022/11/16 09:12:55;;;;;;;;;;;;;;;29.54;26.96;100050.72;4984628;28;938;-21
2022/11/16 09:15:20;;;;;;;;;;;;;;;29.94;25.68;100046.97;4975641;28;1157;-20
2022/11/16 09:17:46;;;;;;;;;;;;;;;30.26;25.67;100038.00;4970270;28;1238;-20
2022/11/16 09:20:11;;;;;;;;;;;;;;;30.42;25.92;100028.44;4970662;28;952;-21
2022/11/16 09:22:36;;;;;;;;;;;;;;;30.55;25.07;100025.59;4920868;28;1328631;-21
2022/11/16 09:25:02;;;;;;;;;;;;;;;30.25;25.52;100014.59;4967229;28;1983;-20
2022/11/16 09:27:27;;;;;;;;;;;;;;;30.13;25.58;100018.00;4971215;28;941;-20
2022/11/16 09:29:52;;;;;;;;;;;;;;;30.09;25.99;100016.81;4970830;28;1036;-21
2022/11/16 09:32:18;;;;;;;;;;;;;;;30.38;25.91;100010.97;4973536;28;987;-22
2022/11/16 09:34:43;;;;;;;;;;;;;;;30.22;25.78;99998.78;4976922;28;1166;-21
2022/11/16 09:37:08;;;;;;;;;;;;;;;29.72;26.08;99994.97;4976018;28;1129;-21
2022/11/16 09:39:34;;;;;;;;;;;;;;;29.38;26.43;99987.84;4977084;28;1102;-21
2022/11/16 09:42:17;;;;;;;;;;;;;;;29.98;25.74;99993.13;4976775;28;1098;-21
2022/11/16 09:44:55;;;;;;;;;;;;;;;29.73;25.89;99983.91;4976396;28;1959;-21
2022/11/16 09:47:21;;;;;;;;;;;;;;;29.51;26.49;99991.53;4976620;28;1118;-21
2022/11/16 09:49:56;;;;;;;;;;;;;;;29.74;26.19;99990.16;4976902;28;1435;-21
2022/11/16 09:52:30;;;;;;;;;;;;;;;29.50;26.17;99989.88;4975932;28;1983;-21
2022/11/16 09:54:55;;;;;;;;;;;;;;;29.38;26.59;99970.78;4975574;28;1185;-21
2022/11/16 09:57:21;;;;;;;;;;;;;;;29.27;26.66;99964.16;4960109;28;1009;-21
2022/11/16 09:59:47;;;;;;;;;;;;;;;29.62;26.26;99969.19;4959584;28;1197;-21
2022/11/16 10:02:12;;;;;;;;;;;;;;;30.10;25.65;99955.25;4976961;28;1094;-21
2022/11/16 10:04:42;;;;;;;;;;;;;;;29.71;26.14;99948.09;4977347;28;1906;-21
2022/11/16 10:07:22;;;;;;;;;;;;;;;29.26;26.74;99943.56;4960205;28;1099;-21
2022/11/16 10:09:47;;;;;;;;;;;;;;;29.90;25.98;99948.13;4959329;28;913;-21
2022/11/16 10:12:13;;;;;;;;;;;;;;;29.68;26.17;99933.06;4973520;28;1209;-21
2022/11/16 10:15:00;;;;;;;;;;;;;;;29.37;26.82;99937.44;4976445;28;857;-21
2022/11/16 10:17:37;;;;;;;;;;;;;;;29.75;26.39;99934.91;4976757;28;1102;-22
2022/11/16 10:20:26;;;;;;;;;;;;;;;29.62;26.14;99933.13;4972566;28;1348;-21
2022/11/16 10:22:51;;;;;;;;;;;;;;;29.14;27.12;99924.44;4945589;28;1977;-23
2022/11/16 10:25:19;;;;;;;;;;;;;;;29.32;27.05;99924.56;4970582;28;895;-22
2022/11/16 10:27:59;;;;;;;;;;;;;;;29.46;26.96;99919.06;4974594;28;1107;-22
2022/11/16 10:30:25;;;;;;;;;;;;;;;29.18;27.04;99917.53;4951323;28;1022;-22
2022/11/16 10:32:59;;;;;;;;;;;;;;;29.78;26.26;99913.59;4964876;28;1367;-22
2022/11/16 10:35:24;;;;;;;;;;;;;;;29.80;26.71;99916.94;4971873;28;945;-22
2022/11/16 10:37:50;;;;;;;;;;;;;;;29.26;27.10;99908.34;4987338;28;1046;-22
2022/11/16 10:40:20;;;;;;;;;;;;;;;29.90;26.61;99905.59;4970966;28;1071;-23
2022/11/16 10:42:45;;;;;;;;;;;;;;;29.77;27.14;99895.69;4975176;28;1037;-23
2022/11/16 10:45:23;;;;;;;;;;;;;;;29.31;27.11;99889.56;4976969;28;1883;-22
2022/11/16 10:48:03;;;;;;;;;;;;;;;29.62;27.06;99887.06;4968876;28;1124;-22
2022/11/16 10:50:30;;;;;;;;;;;;;;;29.46;27.11;99890.06;4957405;28;1416;-22
2022/11/16 10:52:56;;;;;;;;;;;;;;;29.04;27.33;99882.44;4972003;28;1944;-23
2022/11/16 10:55:21;;;;;;;;;;;;;;;29.60;26.94;99875.59;4972470;28;1060;-22
2022/11/16 10:57:53;;;;;;;;;;;;;;;29.33;27.01;99865.78;4975510;28;1102;-22
2022/11/16 11:00:32;;;;;;;;;;;;;;;29.20;27.27;99862.13;4973864;28;895;-22
2022/11/16 11:02:57;;;;;;;;;;;;;;;29.62;27.09;99859.94;4974713;28;1898;-22
2022/11/16 11:05:24;;;;;;;;;;;;;;;29.03;27.31;99861.81;4982186;28;1054;-22
2022/11/16 11:07:50;;;;;;;;;;;;;;;29.61;26.74;99861.84;4980838;28;942;-23
2022/11/16 11:10:23;;;;;;;;;;;;;;;29.43;27.11;99866.13;4975699;28;1157;-22
2022/11/16 11:13:07;;;;;;;;;;;;;;;28.87;27.85;99857.72;4976563;28;996;-22
2022/11/16 11:15:32;;;;;;;;;;;;;;;29.63;27.71;99857.03;4974901;28;953;-21
2022/11/16 11:18:10;;;;;;;;;;;;;;;29.00;27.52;99847.88;4978146;28;1073;-21
2022/11/16 11:20:35;;;;;;;;;;;;;;;29.54;27.28;99850.19;4978305;28;949;-21
2022/11/16 11:23:10;;;;;;;;;;;;;;;29.46;27.21;99846.69;4958492;28;1914;-21
2022/11/16 11:25:37;;;;;;;;;;;;;;;28.73;27.92;99841.53;4959104;28;1038;-22
2022/11/16 11:28:05;;;;;;;;;;;;;;;29.26;27.28;99835.22;4977297;28;1149;-21
2022/11/16 11:30:30;;;;;;;;;;;;;;;29.15;27.37;99829.44;4977273;28;1436;-21
2022/11/16 11:32:55;;;;;;;;;;;;;;;29.07;28.20;99835.13;4960974;28;990;-22
2022/11/16 11:35:22;;;;;;;;;;;;;;;29.67;27.89;99830.31;4959970;28;1026;-22
2022/11/16 11:37:47;;;;;;;;;;;;;;;28.84;27.88;99818.34;4959530;28;942;-22
2022/11/16 11:40:20;;;;;;;;;;;;;;;29.17;28.32;99823.81;4962123;28;962;-22
2022/11/16 11:42:58;;;;;;;;;;;;;;;29.39;27.57;99818.84;4976189;28;999;-23
2022/11/16 11:45:29;;;;;;;;;;;;;;;28.68;28.17;99814.28;4978420;28;993;-22
2022/11/16 11:47:54;;;;;;;;;;;;;;;29.29;28.22;99813.09;4980210;28;958;-22
2022/11/16 11:50:23;;;;;;;;;;;;;;;29.00;27.76;99805.38;4976346;28;1074;-21
2022/11/16 11:53:06;;;;;;;;;;;;;;;28.58;28.38;99808.50;4984745;28;1843;-20
2022/11/16 11:55:31;;;;;;;;;;;;;;;29.27;28.37;99807.91;4980040;28;1150;-21
2022/11/16 11:57:57;;;;;;;;;;;;;;;28.78;27.99;99808.41;4959956;28;1191;-21
2022/11/16 12:00:24;;;;;;;;;;;;;;;28.71;28.12;99805.75;4976474;28;977;-21
2022/11/16 12:03:09;;;;;;;;;;;;;;;29.42;27.79;99793.19;4978586;28;1903;-23
2022/11/16 12:05:44;;;;;;;;;;;;;;;28.58;28.32;99795.81;4975906;28;1064;-22
2022/11/16 12:08:19;;;;;;;;;;;;;;;28.79;28.11;99790.31;4975634;28;1013;-21
2022/11/16 12:10:49;;;;;;;;;;;;;;;29.01;27.57;99787.28;4977645;28;1040;-23
2022/11/16 12:13:31;;;;;;;;;;;;;;;28.53;28.24;99786.72;4961950;28;1118;-22
2022/11/16 12:15:56;;;;;;;;;;;;;;;29.54;27.71;99791.44;4959636;28;968;-22
2022/11/16 12:18:24;;;;;;;;;;;;;;;28.82;28.04;99779.03;4976326;28;956;-22
2022/11/16 12:20:59;;;;;;;;;;;;;;;28.59;28.38;99781.25;4975626;28;1082;-22
2022/11/16 12:23:31;;;;;;;;;;;;;;;29.51;27.98;99774.78;4958984;28;1977;-21
2022/11/16 12:26:02;;;;;;;;;;;;;;;28.80;27.72;99779.25;4975742;28;1070;-22
2022/11/16 12:28:44;;;;;;;;;;;;;;;28.42;28.28;99693.53;4976578;28;1012;-23
2022/11/16 12:31:09;;;;;;;;;;;;;;;29.15;27.69;99769.03;4968398;28;978;-21
2022/11/16 12:33:43;;;;;;;;;;;;;;;28.65;27.78;99760.63;4982033;28;1015;-21
2022/11/16 12:36:23;;;;;;;;;;;;;;;29.05;28.66;99764.13;4957843;28;1064;-20
2022/11/16 12:38:52;;;;;;;;;;;;;;;28.92;27.88;99776.69;4979628;28;981;-22
2022/11/16 12:41:17;;;;;;;;;;;;;;;28.61;28.65;99756.69;4958175;28;896;-20
2022/11/16 12:43:45;;;;;;;;;;;;;;;29.38;28.24;99763.00;4973584;28;1890;-22
2022/11/16 12:46:17;;;;;;;;;;;;;;;28.70;28.31;99759.94;4974329;28;975;-22
2022/11/16 12:48:48;;;;;;;;;;;;;;;28.42;28.36;99763.88;4971696;28;930;-22
2022/11/16 12:51:32;;;;;;;;;;;;;;;29.21;27.63;99755.44;4971420;28;1410;-21
2022/11/16 12:54:00;;;;;;;;;;;;;;;28.47;28.55;99756.78;4975698;28;1115;-22
2022/11/16 12:56:32;;;;;;;;;;;;;;;28.27;29.07;99751.44;4975750;28;1209;-22
2022/11/16 12:59:09;;;;;;;;;;;;;;;28.90;28.24;99753.56;4976037;28;1095;-22
2022/11/16 13:01:35;;;;;;;;;;;;;;;28.15;29.05;99751.25;4976317;28;1297;-22
2022/11/16 13:04:04;;;;;;;;;;;;;;;28.77;29.02;99749.09;4973849;28;1902;-22
2022/11/16 13:06:37;;;;;;;;;;;;;;;28.52;28.54;99753.41;4974870;28;1214;-23
2022/11/16 13:09:07;;;;;;;;;;;;;;;28.11;29.06;99750.84;4960847;28;1175;-21
2022/11/16 13:11:37;;;;;;;;;;;;;;;29.24;28.17;99750.63;4957723;28;1230;-22
2022/11/16 13:14:06;;;;;;;;;;;;;;;28.25;29.03;99750.81;4976400;28;1244;-21
2022/11/16 13:16:31;;;;;;;;;;;;;;;27.98;29.47;99745.50;4959084;28;1320;-21
2022/11/16 13:18:56;;;;;;;;;;;;;;;28.82;28.05;99751.97;4958922;28;1166;-21
2022/11/16 13:21:28;;;;;;;;;;;;;;;28.15;28.86;99736.91;4959673;28;2419;-22
2022/11/16 13:24:08;;;;;;;;;;;;;;;28.27;29.67;99742.47;4977038;28;1965;-22
2022/11/16 13:26:51;;;;;;;;;;;;;;;28.55;28.30;99739.44;4977576;28;1533;-23
2022/11/16 13:29:35;;;;;;;;;;;;;;;27.98;29.22;99734.69;4976893;28;1147;-22
2022/11/16 13:32:00;;;;;;;;;;;;;;;29.20;28.20;99744.84;4974809;28;1202;-21
2022/11/16 13:34:32;;;;;;;;;;;;;;;28.21;28.96;99742.28;4976740;28;1288;-21
2022/11/16 13:36:57;;;;;;;;;;;;;;;28.58;28.91;99741.72;4977328;28;1303;-21